createdAt,value
2022-12-15T00:00:17.119Z,17.83
2022-12-15T00:03:02.703Z,18.67
2022-12-15T00:05:50.047Z,17.40
2022-12-15T00:08:37.977Z,17.00
2022-12-15T00:11:23.789Z,17.07
2022-12-15T00:14:09.187Z,17.20
2022-12-15T00:16:54.615Z,16.77
2022-12-15T00:19:40.077Z,16.63
2022-12-15T00:22:25.515Z,16.17
2022-12-15T00:25:10.814Z,17.77
2022-12-15T00:27:56.140Z,18.13
2022-12-15T00:30:41.523Z,17.33
2022-12-15T00:33:30.452Z,15.90
2022-12-15T00:36:18.437Z,18.03
2022-12-15T00:38:48.487Z,17.60
2022-12-15T00:41:18.042Z,18.10
2022-12-15T00:43:45.540Z,17.00
2022-12-15T00:46:31.460Z,17.17
2022-12-15T00:48:58.589Z,17.07
2022-12-15T00:51:44.544Z,16.47
2022-12-15T00:54:29.889Z,15.30
2022-12-15T00:57:15.290Z,17.67
2022-12-15T01:00:00.410Z,17.57
2022-12-15T01:02:45.755Z,17.43
2022-12-15T01:05:31.292Z,16.47
2022-12-15T01:08:18.823Z,17.00
2022-12-15T01:11:04.163Z,16.90
2022-12-15T01:13:49.721Z,16.40
2022-12-15T01:16:35.294Z,17.33
2022-12-15T01:19:20.733Z,16.63
2022-12-15T01:21:49.531Z,17.07
2022-12-15T01:24:16.280Z,17.83
2022-12-15T01:26:42.990Z,17.27
2022-12-15T01:29:09.698Z,16.57
2022-12-15T01:31:36.590Z,16.80
2022-12-15T01:34:03.413Z,16.63
2022-12-15T01:36:30.185Z,16.20
2022-12-15T01:38:56.885Z,17.20
2022-12-15T01:41:24.168Z,16.00
2022-12-15T01:43:51.079Z,16.23
2022-12-15T01:46:21.898Z,17.50
2022-12-15T01:49:02.828Z,17.13
2022-12-15T01:51:39.274Z,15.63
2022-12-15T01:54:20.825Z,17.03
2022-12-15T01:56:56.855Z,16.43
2022-12-15T01:59:34.837Z,15.67
2022-12-15T02:02:03.319Z,16.57
2022-12-15T02:04:31.856Z,16.83
2022-12-15T02:06:58.541Z,15.77
2022-12-15T02:09:27.937Z,17.07
2022-12-15T02:12:51.201Z,14.97
2022-12-15T02:15:29.654Z,16.23
2022-12-15T02:18:25.425Z,17.40
2022-12-15T02:21:17.814Z,16.93
2022-12-15T02:24:10.584Z,17.40
2022-12-15T02:27:25.316Z,18.20
2022-12-15T02:30:19.535Z,16.27
2022-12-15T02:33:17.113Z,16.77
2022-12-15T02:36:02.112Z,16.90
2022-12-15T02:38:41.519Z,17.57
2022-12-15T02:41:32.552Z,17.67
2022-12-15T02:44:01.152Z,17.10
2022-12-15T02:46:59.190Z,17.00
2022-12-15T02:50:13.059Z,18.17
2022-12-15T02:53:00.588Z,17.73
2022-12-15T02:56:08.128Z,18.17
2022-12-15T02:59:00.411Z,15.37
2022-12-15T03:01:56.880Z,16.57
2022-12-15T03:04:25.734Z,17.50
2022-12-15T03:07:01.084Z,16.50
2022-12-15T03:09:28.368Z,16.93
2022-12-15T03:11:55.104Z,17.80
2022-12-15T03:14:22.555Z,17.87
2022-12-15T03:16:49.323Z,15.97
2022-12-15T03:19:16.090Z,17.97
2022-12-15T03:21:42.823Z,17.73
2022-12-15T03:24:09.611Z,17.27
2022-12-15T03:26:36.323Z,17.87
2022-12-15T03:29:03.722Z,18.90
2022-12-15T03:31:30.493Z,17.67
2022-12-15T03:33:57.298Z,18.00
2022-12-15T03:36:24.064Z,18.20
2022-12-15T03:38:50.856Z,18.40
2022-12-15T03:41:20.551Z,17.83
2022-12-15T03:43:49.718Z,18.53
2022-12-15T03:46:17.104Z,18.40
2022-12-15T03:48:44.081Z,19.00
2022-12-15T03:51:11.007Z,19.70
2022-12-15T03:53:38.805Z,19.80
2022-12-15T03:56:06.041Z,19.63
2022-12-15T03:58:32.785Z,17.60
2022-12-15T04:00:59.556Z,19.53
2022-12-15T04:03:26.346Z,19.80
2022-12-15T04:05:53.164Z,19.03
2022-12-15T04:08:26.471Z,19.10
2022-12-15T04:10:53.367Z,18.43
2022-12-15T04:13:20.174Z,20.20
2022-12-15T04:15:46.880Z,20.33
2022-12-15T04:18:13.695Z,20.60
2022-12-15T04:20:41.081Z,19.07
2022-12-15T04:23:08.282Z,19.43
2022-12-15T04:25:54.716Z,18.37
2022-12-15T04:28:40.728Z,19.73
2022-12-15T04:31:35.588Z,19.13
2022-12-15T04:34:24.872Z,17.93
2022-12-15T04:37:12.287Z,18.00
2022-12-15T04:40:06.234Z,19.33
2022-12-15T04:42:54.128Z,19.77
2022-12-15T04:45:43.488Z,17.73
2022-12-15T04:48:30.061Z,19.60
2022-12-15T04:51:15.580Z,18.40
2022-12-15T04:54:04.568Z,18.67
2022-12-15T04:56:51.604Z,18.47
2022-12-15T04:59:36.777Z,19.37
2022-12-15T05:02:22.234Z,19.83
2022-12-15T05:05:07.497Z,19.27
2022-12-15T05:07:52.943Z,20.03
2022-12-15T05:10:38.380Z,19.67
2022-12-15T05:13:26.148Z,20.03
2022-12-15T05:16:11.654Z,18.13
2022-12-15T05:18:56.977Z,20.33
2022-12-15T05:21:42.373Z,18.13
2022-12-15T05:24:27.766Z,19.63
2022-12-15T05:27:12.888Z,20.30
2022-12-15T05:29:58.365Z,20.77
2022-12-15T05:32:25.081Z,19.60
2022-12-15T05:34:51.764Z,19.13
2022-12-15T05:37:18.536Z,18.93
2022-12-15T05:39:45.255Z,19.60
2022-12-15T05:42:12.047Z,19.20
2022-12-15T05:44:38.828Z,19.57
2022-12-15T05:47:05.585Z,18.50
2022-12-15T05:49:33.294Z,18.33
2022-12-15T05:52:00.029Z,19.63
2022-12-15T05:54:27.074Z,17.37
2022-12-15T05:56:53.871Z,19.30
2022-12-15T05:59:20.640Z,19.80
2022-12-15T06:01:47.590Z,20.70
2022-12-15T06:04:14.673Z,19.13
2022-12-15T06:06:42.323Z,20.00
2022-12-15T06:09:10.049Z,19.60
2022-12-15T06:11:37.381Z,21.30
2022-12-15T06:14:04.408Z,19.87
2022-12-15T06:16:32.001Z,19.80
2022-12-15T06:19:01.856Z,20.07
2022-12-15T06:21:38.060Z,18.30
2022-12-15T06:24:06.141Z,18.70
2022-12-15T06:26:38.465Z,20.07
2022-12-15T06:29:10.044Z,18.53
2022-12-15T06:31:38.145Z,21.93
2022-12-15T06:34:08.436Z,19.73
2022-12-15T06:36:36.425Z,20.47
2022-12-15T06:39:06.384Z,18.33
2022-12-15T06:41:33.198Z,19.20
2022-12-15T06:44:00.752Z,19.67
2022-12-15T06:46:30.324Z,20.07
2022-12-15T06:48:58.532Z,18.80
2022-12-15T06:51:27.097Z,19.40
2022-12-15T06:53:55.128Z,20.30
2022-12-15T06:56:35.989Z,18.57
2022-12-15T06:59:05.247Z,19.23
2022-12-15T07:01:32.733Z,17.90
2022-12-15T07:04:01.363Z,19.50
2022-12-15T07:06:36.026Z,18.30
2022-12-15T07:09:04.419Z,17.03
2022-12-15T07:11:31.146Z,15.73
2022-12-15T07:13:57.865Z,17.60
2022-12-15T07:16:24.933Z,16.53
2022-12-15T07:18:52.203Z,18.80
2022-12-15T07:21:19.817Z,18.10
2022-12-15T07:23:55.952Z,17.23
2022-12-15T07:26:25.511Z,17.60
2022-12-15T07:28:53.356Z,18.70
2022-12-15T07:31:20.661Z,18.63
2022-12-15T07:33:48.140Z,17.57
2022-12-15T07:36:15.043Z,17.73
2022-12-15T07:38:41.756Z,17.87
2022-12-15T07:41:09.885Z,18.90
2022-12-15T07:43:37.632Z,18.37
2022-12-15T07:46:05.794Z,18.33
2022-12-15T07:48:33.951Z,17.90
2022-12-15T07:51:10.922Z,16.70
2022-12-15T07:53:38.376Z,17.03
2022-12-15T07:56:09.032Z,17.03
2022-12-15T07:58:37.752Z,19.30
2022-12-15T08:01:12.481Z,18.90
2022-12-15T08:03:40.003Z,16.83
2022-12-15T08:06:11.030Z,18.10
2022-12-15T08:08:38.373Z,18.37
2022-12-15T08:11:11.921Z,17.33
2022-12-15T08:16:27.886Z,17.67
2022-12-15T08:18:56.974Z,17.83
2022-12-15T08:21:24.124Z,17.53
2022-12-15T08:23:50.933Z,16.93
2022-12-15T08:26:21.392Z,16.57
2022-12-15T08:28:53.980Z,16.50
2022-12-15T08:31:23.523Z,17.37
2022-12-15T08:33:50.899Z,17.17
2022-12-15T08:36:20.343Z,15.80
2022-12-15T08:38:47.749Z,16.90
2022-12-15T08:41:22.879Z,18.33
2022-12-15T08:43:51.446Z,17.70
2022-12-15T08:46:22.380Z,17.43
2022-12-15T08:48:50.291Z,19.13
2022-12-15T08:51:17.575Z,19.03
2022-12-15T08:53:45.130Z,19.43
2022-12-15T08:56:19.296Z,19.30
2022-12-15T08:58:48.361Z,19.77
2022-12-15T09:01:23.308Z,19.33
2022-12-15T09:03:53.653Z,20.43
2022-12-15T09:06:30.497Z,19.13
2022-12-15T09:09:01.284Z,20.97
2022-12-15T09:11:30.410Z,18.57
2022-12-15T09:13:58.224Z,18.20
2022-12-15T09:16:25.838Z,20.03
2022-12-15T09:18:55.925Z,20.70
2022-12-15T09:21:26.122Z,18.60
2022-12-15T09:23:55.978Z,19.80
2022-12-15T09:26:24.048Z,20.37
2022-12-15T09:28:51.819Z,18.43
2022-12-15T09:31:25.860Z,20.07
2022-12-15T09:33:55.135Z,21.77
2022-12-15T09:36:23.567Z,20.03
2022-12-15T09:38:50.489Z,19.37
2022-12-15T09:41:32.483Z,18.13
2022-12-15T09:44:20.249Z,20.13
2022-12-15T09:47:44.784Z,19.63
2022-12-15T09:50:15.776Z,19.33
2022-12-15T09:53:00.479Z,18.53
2022-12-15T09:55:30.894Z,18.27
2022-12-15T09:58:22.265Z,17.83
2022-12-15T10:01:29.656Z,17.37
2022-12-15T10:04:18.230Z,16.47
2022-12-15T10:06:59.774Z,15.83
2022-12-15T10:09:29.712Z,18.83
2022-12-15T10:12:07.472Z,19.73
2022-12-15T10:15:12.326Z,19.00
2022-12-15T10:17:48.499Z,19.07
2022-12-15T10:20:22.087Z,16.97
2022-12-15T10:22:50.403Z,17.13
2022-12-15T10:25:32.852Z,17.83
2022-12-15T10:28:38.465Z,16.70
2022-12-15T10:31:52.697Z,17.37
2022-12-15T10:34:36.365Z,17.80
2022-12-15T10:37:03.683Z,18.03
2022-12-15T10:39:43.432Z,16.43
2022-12-15T10:42:47.239Z,17.57
2022-12-15T10:45:37.749Z,17.37
2022-12-15T10:48:06.733Z,15.67
2022-12-15T10:50:35.363Z,18.13
2022-12-15T10:53:09.512Z,18.47
2022-12-15T10:55:38.969Z,19.83
2022-12-15T10:58:23.427Z,18.70
2022-12-15T11:01:14.447Z,19.03
2022-12-15T11:03:41.820Z,18.30
2022-12-15T11:06:19.534Z,19.90
2022-12-15T11:08:47.608Z,19.13
2022-12-15T11:11:50.377Z,19.67
2022-12-15T11:14:26.780Z,20.13
2022-12-15T11:16:59.004Z,18.93
2022-12-15T11:19:56.730Z,20.50
2022-12-15T11:22:46.701Z,19.50
2022-12-15T11:25:31.384Z,20.10
2022-12-15T11:28:04.291Z,19.77
2022-12-15T11:30:45.519Z,20.57
2022-12-15T11:33:12.241Z,19.80
2022-12-15T11:36:10.031Z,19.90
2022-12-15T11:39:20.626Z,19.73
2022-12-15T11:42:18.188Z,19.07
2022-12-15T11:45:26.772Z,19.10
2022-12-15T11:48:06.122Z,18.87
2022-12-15T11:50:51.142Z,18.27
2022-12-15T11:53:59.324Z,19.20
2022-12-15T11:56:35.282Z,18.00
2022-12-15T11:59:25.247Z,20.03
2022-12-15T12:02:33.181Z,18.43
2022-12-15T12:05:18.582Z,19.10
2022-12-15T12:07:49.300Z,18.23
2022-12-15T12:10:47.526Z,18.47
2022-12-15T12:14:02.592Z,18.00
2022-12-15T12:17:24.786Z,18.77
2022-12-15T12:19:59.111Z,20.53
2022-12-15T12:22:42.193Z,18.10
2022-12-15T12:25:22.487Z,18.03
2022-12-15T12:28:03.775Z,17.47
2022-12-15T12:30:44.305Z,17.47
2022-12-15T12:33:44.565Z,17.73
2022-12-15T12:36:16.224Z,17.70
2022-12-15T12:38:52.877Z,17.03
2022-12-15T12:42:17.770Z,15.57
2022-12-15T12:44:48.931Z,16.93
2022-12-15T12:47:36.293Z,16.80
2022-12-15T12:50:16.697Z,16.83
2022-12-15T12:52:57.233Z,17.57
2022-12-15T12:55:41.901Z,16.43
2022-12-15T12:58:36.214Z,17.27
2022-12-15T13:01:25.523Z,15.87
2022-12-15T13:04:07.392Z,15.47
2022-12-15T13:06:34.118Z,15.53
2022-12-15T13:09:23.907Z,16.90
2022-12-15T13:11:53.244Z,16.50
2022-12-15T13:14:26.986Z,15.93
2022-12-15T13:17:38.961Z,14.70
2022-12-15T13:20:20.152Z,14.40
2022-12-15T13:22:47.229Z,13.50
2022-12-15T13:25:41.069Z,13.33
2022-12-15T13:28:37.099Z,12.83
2022-12-15T13:31:19.101Z,12.37
2022-12-15T13:33:52.337Z,12.60
2022-12-15T13:36:40.039Z,13.50
2022-12-15T13:39:12.462Z,12.27
2022-12-15T13:44:57.262Z,12.43
2022-12-15T13:47:29.301Z,12.40
2022-12-15T13:50:12.329Z,12.33
2022-12-15T13:55:46.145Z,11.90
2022-12-15T13:58:18.133Z,11.30
2022-12-15T14:00:54.022Z,11.70
2022-12-15T14:03:22.062Z,12.43
2022-12-15T14:05:52.709Z,12.70
2022-12-15T14:08:23.392Z,11.53
2022-12-15T14:10:56.973Z,11.10
2022-12-15T14:13:30.116Z,10.70
2022-12-15T14:16:15.184Z,10.57
2022-12-15T14:18:43.898Z,11.17
2022-12-15T14:21:26.876Z,10.93
2022-12-15T14:24:36.576Z,11.07
2022-12-15T14:26:42.101Z,11.03
2022-12-15T14:29:10.523Z,11.60
2022-12-15T14:31:38.068Z,10.67
2022-12-15T14:34:35.164Z,11.80
2022-12-15T14:37:07.767Z,11.07
2022-12-15T14:39:50.055Z,10.30
2022-12-15T14:42:27.948Z,10.53
2022-12-15T14:48:30.637Z,10.20
2022-12-15T14:50:48.003Z,9.83
2022-12-15T14:53:20.217Z,10.07
2022-12-15T14:55:47.106Z,11.30
2022-12-15T14:58:36.164Z,11.57
2022-12-15T15:01:21.260Z,11.63
2022-12-15T15:03:06.025Z,10.93
2022-12-15T15:04:04.834Z,11.23
2022-12-15T15:06:38.389Z,11.70
2022-12-15T15:09:41.661Z,11.40
2022-12-15T15:12:22.279Z,13.17
2022-12-15T15:14:58.089Z,13.57
2022-12-15T15:17:36.155Z,15.10
2022-12-15T15:20:18.303Z,13.90
2022-12-15T15:22:47.573Z,13.87
2022-12-15T15:25:26.045Z,15.27
2022-12-15T15:28:01.074Z,14.57
2022-12-15T15:30:28.094Z,14.50
2022-12-15T15:32:57.364Z,13.53
2022-12-15T15:35:30.767Z,14.60
2022-12-15T15:38:14.548Z,13.17
2022-12-15T15:40:41.300Z,13.70
2022-12-15T15:43:12.419Z,14.47
2022-12-15T15:45:41.945Z,14.97
2022-12-15T15:48:24.972Z,14.53
2022-12-15T15:50:52.105Z,13.07
2022-12-15T15:53:23.843Z,12.77
2022-12-15T15:55:53.545Z,13.23
2022-12-15T15:58:20.627Z,13.37
2022-12-15T16:00:47.405Z,13.97
2022-12-15T16:03:14.360Z,13.50
2022-12-15T16:05:42.737Z,14.00
2022-12-15T16:08:24.315Z,13.73
2022-12-15T16:10:51.113Z,15.30
2022-12-15T16:13:25.809Z,17.87
2022-12-15T16:15:53.947Z,17.00
2022-12-15T16:18:21.304Z,15.33
2022-12-15T16:20:51.940Z,15.90
2022-12-15T16:23:23.698Z,17.20
2022-12-15T16:26:00.107Z,15.70
2022-12-15T16:28:30.703Z,15.17
2022-12-15T16:30:58.701Z,14.80
2022-12-15T16:33:25.779Z,15.27
2022-12-15T16:35:53.515Z,14.67
2022-12-15T16:38:26.730Z,15.67
2022-12-15T16:40:55.681Z,15.03
2022-12-15T16:43:32.861Z,13.03
2022-12-15T16:46:03.306Z,15.40
2022-12-15T16:48:30.504Z,14.77
2022-12-15T16:50:59.063Z,13.70
2022-12-15T16:53:31.977Z,14.37
2022-12-15T16:56:02.856Z,13.73
2022-12-15T16:58:31.757Z,13.93
2022-12-15T17:00:58.684Z,15.60
2022-12-15T17:03:28.631Z,14.33
2022-12-15T17:06:04.019Z,15.40
2022-12-15T17:08:43.627Z,15.43
2022-12-15T17:11:19.082Z,15.63
2022-12-15T17:13:51.076Z,17.57
2022-12-15T17:16:20.495Z,15.83
2022-12-15T17:18:47.947Z,15.80
2022-12-15T17:21:32.102Z,15.23
2022-12-15T17:24:12.371Z,15.83
2022-12-15T17:26:39.565Z,15.40
2022-12-15T17:29:13.055Z,15.90
2022-12-15T17:31:39.935Z,15.80
2022-12-15T17:34:32.982Z,14.57
2022-12-15T17:37:04.185Z,14.87
2022-12-15T17:39:33.877Z,15.43
2022-12-15T17:42:02.054Z,15.37
2022-12-15T17:44:38.292Z,15.03
2022-12-15T17:47:08.706Z,14.10
2022-12-15T17:49:38.031Z,15.93
2022-12-15T17:52:34.155Z,14.43
2022-12-15T17:55:04.043Z,14.43
2022-12-15T17:57:31.878Z,14.13
2022-12-15T18:00:01.716Z,14.17
2022-12-15T18:02:28.610Z,14.10
2022-12-15T18:04:55.613Z,14.47
2022-12-15T18:07:23.988Z,14.23
2022-12-15T18:09:52.440Z,14.80
2022-12-15T18:12:28.973Z,12.20
2022-12-15T18:14:56.748Z,13.63
2022-12-15T18:17:23.978Z,12.53
2022-12-15T18:19:53.887Z,14.27
2022-12-15T18:22:25.117Z,13.47
2022-12-15T18:24:54.158Z,14.77
2022-12-15T18:27:26.555Z,14.60
2022-12-15T18:29:54.009Z,13.20
2022-12-15T18:32:25.801Z,14.20
2022-12-15T18:34:53.758Z,14.87
2022-12-15T18:37:23.336Z,15.30
2022-12-15T18:39:50.633Z,14.00
2022-12-15T18:42:21.722Z,14.37
2022-12-15T18:44:52.062Z,15.17
2022-12-15T18:47:22.888Z,17.60
2022-12-15T18:49:51.890Z,20.37
2022-12-15T18:52:22.601Z,19.97
2022-12-15T18:54:52.198Z,17.83
2022-12-15T18:57:36.242Z,17.20
2022-12-15T19:00:25.819Z,15.27
2022-12-15T19:02:56.163Z,13.63
2022-12-15T19:05:28.317Z,13.53
2022-12-15T19:08:10.728Z,13.47
2022-12-15T19:10:52.254Z,12.13
2022-12-15T19:13:23.364Z,13.33
2022-12-15T19:15:51.228Z,13.10
2022-12-15T19:18:39.865Z,12.87
2022-12-15T19:21:43.441Z,12.57
2022-12-15T19:24:17.580Z,13.80
2022-12-15T19:26:44.287Z,12.57
2022-12-15T19:29:23.776Z,12.63
2022-12-15T19:31:51.298Z,12.00
2022-12-15T19:34:18.021Z,13.33
2022-12-15T19:36:44.719Z,12.57
2022-12-15T19:39:23.124Z,11.70
2022-12-15T19:41:50.699Z,11.43
2022-12-15T19:44:17.573Z,11.47
2022-12-15T19:46:45.047Z,12.63
2022-12-15T19:49:11.760Z,11.97
2022-12-15T19:51:39.742Z,13.17
2022-12-15T19:54:06.644Z,13.80
2022-12-15T19:56:33.373Z,13.53
2022-12-15T19:59:00.131Z,11.90
2022-12-15T20:01:26.974Z,11.97
2022-12-15T20:03:54.086Z,11.00
2022-12-15T20:06:27.274Z,11.13
2022-12-15T20:08:56.107Z,11.50
2022-12-15T20:11:30.917Z,11.73
2022-12-15T20:13:57.970Z,10.37
2022-12-15T20:16:25.239Z,11.33
2022-12-15T20:18:55.038Z,11.80
2022-12-15T20:21:28.903Z,11.33
2022-12-15T20:24:01.954Z,11.40
2022-12-15T20:26:30.616Z,9.97
2022-12-15T20:28:57.947Z,10.40
2022-12-15T20:31:26.270Z,9.77
2022-12-15T20:33:53.340Z,12.10
2022-12-15T20:36:29.738Z,11.73
2022-12-15T20:38:57.081Z,11.90
2022-12-15T20:41:28.185Z,11.17
2022-12-15T20:43:56.454Z,12.20
2022-12-15T20:46:34.725Z,12.37
2022-12-15T20:49:02.191Z,11.93
2022-12-15T20:51:32.670Z,12.27
2022-12-15T20:54:02.743Z,12.07
2022-12-15T20:56:29.658Z,11.43
2022-12-15T20:58:58.647Z,12.00
2022-12-15T21:01:35.116Z,11.77
2022-12-15T21:04:25.816Z,11.77
2022-12-15T21:06:55.140Z,13.00
2022-12-15T21:09:23.276Z,11.47
2022-12-15T21:11:51.742Z,12.63
2022-12-15T21:14:22.463Z,11.70
2022-12-15T21:16:50.299Z,11.37
2022-12-15T21:19:21.996Z,12.17
2022-12-15T21:21:55.553Z,10.77
2022-12-15T21:24:27.155Z,11.87
2022-12-15T21:26:54.840Z,13.53
2022-12-15T21:29:25.448Z,12.43
2022-12-15T21:31:52.552Z,13.00
2022-12-15T21:34:19.258Z,13.70
2022-12-15T21:36:52.332Z,13.97
2022-12-15T21:39:29.595Z,12.50
2022-12-15T21:42:01.195Z,13.57
2022-12-15T21:44:27.947Z,13.80
2022-12-15T21:46:54.849Z,13.07
2022-12-15T21:49:21.995Z,13.47
2022-12-15T21:51:55.199Z,12.63
2022-12-15T21:54:31.359Z,12.30
2022-12-15T21:57:02.511Z,13.10
2022-12-15T21:59:32.136Z,11.53
2022-12-15T22:02:31.392Z,13.73
2022-12-15T22:04:58.251Z,12.30
2022-12-15T22:07:24.965Z,12.37
2022-12-15T22:09:51.885Z,12.40
2022-12-15T22:12:23.603Z,12.47
2022-12-15T22:14:50.736Z,12.87
2022-12-15T22:17:22.014Z,12.80
2022-12-15T22:19:48.819Z,12.87
2022-12-15T22:22:16.478Z,13.80
2022-12-15T22:24:43.842Z,13.57
2022-12-15T22:27:20.488Z,12.73
2022-12-15T22:29:49.064Z,14.23
2022-12-15T22:32:17.391Z,12.97
2022-12-15T22:34:44.081Z,13.03
2022-12-15T22:37:10.778Z,13.53
2022-12-15T22:39:37.472Z,13.13
2022-12-15T22:42:05.220Z,14.07
2022-12-15T22:44:37.183Z,14.73
2022-12-15T22:47:06.415Z,13.97
2022-12-15T22:49:38.869Z,14.77
2022-12-15T22:52:20.598Z,15.97
2022-12-15T22:54:47.813Z,12.87
2022-12-15T22:57:24.847Z,15.33
2022-12-15T23:00:04.033Z,15.60
2022-12-15T23:02:38.882Z,14.87
2022-12-15T23:05:09.121Z,15.17
2022-12-15T23:07:36.007Z,14.57
2022-12-15T23:10:27.187Z,15.00
2022-12-15T23:12:54.527Z,14.87
2022-12-15T23:15:46.210Z,15.20
2022-12-15T23:18:13.965Z,15.07
2022-12-15T23:20:41.187Z,15.70
2022-12-15T23:23:09.814Z,14.93
2022-12-15T23:25:36.523Z,15.60
2022-12-15T23:28:03.575Z,15.43
2022-12-15T23:30:30.324Z,15.27
2022-12-15T23:32:57.105Z,15.63
2022-12-15T23:35:23.947Z,15.87
2022-12-15T23:37:50.882Z,15.57
2022-12-15T23:40:21.991Z,16.30
2022-12-15T23:42:50.184Z,14.80
2022-12-15T23:45:17.964Z,15.53
2022-12-15T23:47:44.841Z,16.67
2022-12-15T23:50:11.842Z,16.33
2022-12-15T23:52:38.771Z,14.43
2022-12-15T23:55:09.855Z,14.97
2022-12-15T23:57:38.080Z,16.20
